Terminal Aerodrome Forecast
Issued by NWS

Home | Current Version | Previous Version | Text Only | Print | Product List | Glossary On
Versions: 1 2 3 4 5 6 7 8 9 10 11 12 13
000
FTUS45 KFGZ 191700 RRA
TAFSEZ
TAF
KSEZ 191741Z 1918/2018 VRB05KT P6SM SCT050 BKN080
     FM192000 VRB05KT P6SM VCSH BKN045 OVC060
     FM200200 05008KT P6SM SCT050=

USA.gov is the U.S. government's official web portal to all federal, state and local government web resources and services.